Pagina principale
METAR-TAF:

METAR-TAF

Aeroporti :

Tabarka, Tunisia

latitudine: 36-57N, longitudine: 008-45E, altezza: 20 m

Osservazione

Il bollettino è stato emesso 48 minuti fa, alle 17:00 UTC
Vento 8 kt da nord
Temperature 23°C
Umidità 61%
Pressione 1014 hPa
Visibilità 10 km o più
Poco nuvoloso ad un'altezza di 2000 ft

METAR: DTKA 311700Z 01008KT 9999 FEW020 23/15 Q1014 NOSIG

Ora: 18:48 (17:48 UTC)

Previsione

Il bollettino è stato emesso 2 ore e 48 minuti fa, alle 15:00 UTC
Previsione valida dal 31 alle 16 UTC al 01 alle 01 UTC
Vento 10 kt da nord
Visibilità 10 km o più
Poco nuvoloso ad un'altezza di 2000 ft
Evoluzione graduale
dal 31 alle 19 UTC al 31 alle 21 UTC
Vento 10 kt da est/sud-est

TAF: DTKA 311500Z 3116/0101 01010KT 9999 FEW020 BECMG 3119/3121 11010KT

Osservazioni e previsioni meteorologiche di più di 4000 aeroporti (messaggi METAR e TAF).

Le stazioni disponibili sono rappresentate dai dischi gialli e rossi sulla carta.

Puntare il mouse per vedere il nome della stazione.

Clicca sopra per visualizzare le osservazioni e previsioni meteorologiche.

Per cambiare la mappa : fare clic sui pulsanti verdi con una croce nera per ingrandire, il pulsante verde con un trattino per diminuire, o sulla freccia verde per le mappe adiacenti.


METAR-TAF: